Time;durP1;ratioP1;P1;durP2;ratioP2;P2;SDS_P1;SDS_P2;PMS_P1;PMS_P2;Temp;Humidity;BMP_temperature;BMP_pressure;BME280_temperature;BME280_humidity;BME280_pressure;Samples;Min_cycle;Max_cycle;Signal;HPM_P1;HPM_P2
2021/05/06 00:30:32;;;;;;;1.10;0.30;;;21.30;36.00;;;;;;5024258;28;20018;-45
2021/05/06 00:33:00;;;;;;;0.70;0.20;;;21.30;36.00;;;;;;5030714;28;20029;-46
2021/05/06 00:35:27;;;;;;;0.98;0.30;;;21.40;35.90;;;;;;5020361;28;20017;-46
2021/05/06 00:40:56;;;;;;;1.15;0.30;;;21.30;35.90;;;;;;5022175;28;20036;-45
2021/05/06 01:07:41;;;;;;;0.70;0.20;;;21.20;36.50;;;;;;5025564;28;20451;-46
2021/05/06 01:12:43;;;;;;;0.50;0.20;;;21.20;36.00;;;;;;5013881;28;20029;-47
2021/05/06 01:15:10;;;;;;;1.48;0.20;;;21.20;36.00;;;;;;5027377;28;20045;-45
2021/05/06 01:17:36;;;;;;;0.82;0.30;;;21.20;36.00;;;;;;5021169;28;20026;-45
2021/05/06 01:20:04;;;;;;;0.60;0.20;;;21.20;36.00;;;;;;5030698;28;20030;-46
2021/05/06 01:22:30;;;;;;;0.95;0.30;;;21.20;36.00;;;;;;5026474;28;20025;-45
2021/05/06 01:24:58;;;;;;;0.60;0.20;;;21.20;36.00;;;;;;5010697;28;20042;-45
2021/05/06 01:32:30;;;;;;;0.55;0.10;;;21.20;36.10;;;;;;5025333;28;20060;-45
2021/05/06 01:35:00;;;;;;;0.93;0.20;;;21.20;36.00;;;;;;5036807;28;20029;-46
2021/05/06 01:37:32;;;;;;;1.20;0.30;;;21.20;36.00;;;;;;5025343;28;20663;-46
2021/05/06 01:40:23;;;;;;;0.45;0.20;;;21.20;36.00;;;;;;5010003;28;20100;-47
2021/05/06 01:43:18;;;;;;;0.90;0.10;;;21.10;35.90;;;;;;5017705;28;20030;-47
2021/05/06 01:46:02;;;;;;;1.08;0.20;;;21.10;36.00;;;;;;5022347;28;20507;-47
2021/05/06 01:57:31;;;;;;;0.45;0.15;;;21.10;36.00;;;;;;5009309;28;20080;-46
2021/05/06 01:59:52;;;;;;;0.32;0.10;;;21.10;35.90;;;;;;5030950;28;20057;-45
2021/05/06 02:02:18;;;;;;;1.15;0.30;;;21.10;35.90;;;;;;5021266;28;20030;-46
2021/05/06 02:04:44;;;;;;;0.80;0.10;;;21.10;35.90;;;;;;5029553;28;20025;-45
2021/05/06 02:07:10;;;;;;;1.17;0.10;;;21.10;35.90;;;;;;5022879;28;20437;-46
2021/05/06 02:09:36;;;;;;;0.55;0.20;;;21.10;36.00;;;;;;5028659;28;20025;-45
2021/05/06 02:12:03;;;;;;;0.50;0.13;;;21.10;36.00;;;;;;5029353;28;20031;-47
2021/05/06 02:14:29;;;;;;;0.32;0.10;;;21.10;35.90;;;;;;5031251;28;20095;-46
2021/05/06 02:16:55;;;;;;;1.15;0.13;;;21.10;36.00;;;;;;5030637;28;20049;-44
2021/05/06 02:19:34;;;;;;;0.40;0.22;;;21.00;36.00;;;;;;5031584;28;20060;-44
2021/05/06 02:22:04;;;;;;;0.50;0.10;;;21.00;36.50;;;;;;5029527;28;20079;-43
2021/05/06 02:24:30;;;;;;;0.55;0.10;;;21.00;36.00;;;;;;5031077;28;20437;-44
2021/05/06 02:26:56;;;;;;;0.40;0.10;;;21.00;36.00;;;;;;5024886;28;20033;-43
2021/05/06 02:29:22;;;;;;;1.15;0.20;;;21.10;36.00;;;;;;5029759;28;20398;-43
2021/05/06 02:31:48;;;;;;;0.43;0.10;;;21.00;36.00;;;;;;5021104;28;20028;-44
2021/05/06 02:34:14;;;;;;;0.30;0.10;;;21.00;36.00;;;;;;5030973;28;20025;-44
2021/05/06 02:36:40;;;;;;;0.40;0.10;;;21.00;36.00;;;;;;5030225;28;20032;-44
2021/05/06 02:39:06;;;;;;;0.50;0.10;;;21.00;36.00;;;;;;5030818;28;20025;-44
2021/05/06 02:41:31;;;;;;;0.30;0.10;;;21.00;36.00;;;;;;5031256;28;20387;-44
2021/05/06 02:43:57;;;;;;;0.40;0.10;;;21.00;36.00;;;;;;5030558;28;20033;-44
2021/05/06 02:46:26;;;;;;;2.08;0.20;;;21.00;36.00;;;;;;5025825;28;20060;-44
2021/05/06 02:48:52;;;;;;;1.13;0.20;;;21.00;36.00;;;;;;5029978;28;20136;-43
2021/05/06 02:51:22;;;;;;;0.30;0.10;;;21.00;36.00;;;;;;5031613;28;20041;-44
2021/05/06 02:53:52;;;;;;;0.45;0.10;;;21.00;36.00;;;;;;5039817;28;20021;-45
2021/05/06 02:56:26;;;;;;;1.27;0.20;;;21.00;36.00;;;;;;5026315;28;20043;-44
2021/05/06 03:04:12;;;;;;;0.30;0.10;;;21.00;36.00;;;;;;5019332;28;20061;-45
2021/05/06 03:06:55;;;;;;;0.77;0.20;;;21.00;36.00;;;;;;5027037;28;20075;-44
2021/05/06 03:25:11;;;;;;;1.80;0.20;;;20.90;36.00;;;;;;5033611;28;20522;-43
2021/05/06 03:27:45;;;;;;;0.73;0.10;;;20.90;35.90;;;;;;5031704;28;20100;-44
2021/05/06 04:18:32;;;;;;;0.40;0.08;;;20.80;35.90;;;;;;5032649;28;20025;-45
2021/05/06 04:37:09;;;;;;;1.05;0.10;;;20.80;35.90;;;;;;5030896;28;20025;-45
2021/05/06 04:39:49;;;;;;;1.08;0.10;;;20.80;35.90;;;;;;5033215;28;20411;-45
2021/05/06 05:06:33;;;;;;;0.28;0.10;;;20.70;35.80;;;;;;5038692;28;20052;-45
2021/05/06 05:12:09;;;;;;;0.97;0.10;;;20.70;35.80;;;;;;4970070;28;20532;-44
2021/05/06 05:25:21;;;;;;;2.05;0.10;;;20.70;35.90;;;;;;5029243;28;20025;-45
2021/05/06 05:27:48;;;;;;;0.30;0.10;;;20.70;35.80;;;;;;5035096;28;20052;-45
2021/05/06 05:30:14;;;;;;;0.10;0.00;;;20.70;35.80;;;;;;5027062;28;20052;-45
2021/05/06 05:32:40;;;;;;;0.82;0.10;;;20.70;35.90;;;;;;5032311;28;20029;-45
2021/05/06 05:35:11;;;;;;;0.25;0.00;;;20.70;36.00;;;;;;5031007;28;20112;-45
2021/05/06 05:37:45;;;;;;;0.28;0.10;;;20.80;36.00;;;;;;5029763;28;20030;-45
2021/05/06 05:42:53;;;;;;;0.85;0.10;;;20.90;35.60;;;;;;5031418;28;20056;-45
2021/05/06 05:56:18;;;;;;;0.20;0.10;;;21.40;35.30;;;;;;5025216;28;20057;-44
2021/05/06 05:58:44;;;;;;;0.45;0.10;;;21.50;35.30;;;;;;5037236;28;20090;-44
2021/05/06 06:01:10;;;;;;;0.35;0.10;;;21.50;35.30;;;;;;5027549;28;20032;-44
2021/05/06 06:03:35;;;;;;;0.17;0.00;;;21.50;35.30;;;;;;5027224;28;20100;-44
2021/05/06 06:06:02;;;;;;;0.40;0.10;;;21.50;35.30;;;;;;5029341;28;20026;-45
2021/05/06 06:08:30;;;;;;;1.42;0.10;;;21.60;35.40;;;;;;5031307;28;20048;-45
2021/05/06 06:10:56;;;;;;;0.20;0.10;;;21.60;35.30;;;;;;5030774;28;20033;-44
2021/05/06 06:13:23;;;;;;;0.28;0.10;;;21.60;35.30;;;;;;5026268;28;20021;-45
2021/05/06 06:18:45;;;;;;;1.38;0.10;;;21.60;35.30;;;;;;5031210;28;20045;-45
2021/05/06 06:23:50;;;;;;;1.48;0.30;;;21.50;35.20;;;;;;5030440;28;20041;-45
2021/05/06 06:26:18;;;;;;;0.80;0.10;;;21.50;35.20;;;;;;5031527;28;20457;-45
2021/05/06 06:28:49;;;;;;;0.65;0.10;;;21.50;35.30;;;;;;5030887;28;20561;-44
2021/05/06 06:33:49;;;;;;;1.33;0.10;;;21.50;35.30;;;;;;5011537;28;20109;-44
2021/05/06 06:36:17;;;;;;;1.00;0.10;;;21.50;35.30;;;;;;5015177;28;20049;-44
2021/05/06 06:38:46;;;;;;;0.65;0.10;;;21.50;35.80;;;;;;5030792;28;20507;-44
2021/05/06 06:41:13;;;;;;;1.33;0.10;;;21.50;35.30;;;;;;5011468;28;20088;-44
2021/05/06 06:43:42;;;;;;;0.40;0.10;;;21.50;35.30;;;;;;5020151;28;20030;-44
2021/05/06 06:46:08;;;;;;;0.50;0.10;;;21.40;35.30;;;;;;5026719;28;20481;-45
2021/05/06 06:48:34;;;;;;;2.80;0.20;;;21.40;35.40;;;;;;5027443;28;20108;-44
2021/05/06 06:51:00;;;;;;;1.00;0.10;;;21.40;35.40;;;;;;5032598;28;20027;-44
2021/05/06 06:53:26;;;;;;;0.40;0.10;;;21.40;35.50;;;;;;5034596;28;20040;-44
2021/05/06 06:55:52;;;;;;;0.43;0.10;;;21.40;35.50;;;;;;5030376;28;20073;-44
2021/05/06 06:58:18;;;;;;;0.80;0.20;;;21.40;35.60;;;;;;5030670;28;20028;-44
2021/05/06 07:00:46;;;;;;;0.60;0.20;;;21.40;35.60;;;;;;5031593;28;20037;-45
2021/05/06 07:03:13;;;;;;;0.20;0.10;;;21.40;35.60;;;;;;5030592;28;20063;-44
2021/05/06 07:05:40;;;;;;;0.45;0.10;;;21.40;35.50;;;;;;5027141;28;20036;-44
2021/05/06 07:08:25;;;;;;;0.93;0.30;;;21.40;35.50;;;;;;5030850;28;20114;-44
2021/05/06 07:10:54;;;;;;;1.17;0.20;;;21.40;35.50;;;;;;5029384;28;20029;-44
2021/05/06 07:13:20;;;;;;;0.73;0.20;;;21.40;35.50;;;;;;5026930;28;20650;-43
2021/05/06 07:15:48;;;;;;;0.98;0.20;;;21.40;35.40;;;;;;5028327;28;20053;-45
2021/05/06 07:18:15;;;;;;;1.67;0.10;;;21.40;35.50;;;;;;5024160;28;20029;-45
2021/05/06 07:20:43;;;;;;;0.60;0.10;;;21.40;35.50;;;;;;5024573;28;20427;-45
2021/05/06 07:23:14;;;;;;;0.35;0.15;;;21.40;35.50;;;;;;5029516;28;20026;-43
2021/05/06 07:25:40;;;;;;;0.77;0.38;;;21.40;35.50;;;;;;5027249;28;20026;-44
2021/05/06 07:28:15;;;;;;;0.60;0.10;;;21.40;35.50;;;;;;5021280;28;20113;-44
2021/05/06 07:30:46;;;;;;;3.85;0.30;;;21.40;35.50;;;;;;5028604;28;20120;-46
2021/05/06 07:33:14;;;;;;;1.95;0.10;;;21.40;35.60;;;;;;5028022;28;20336;-45
2021/05/06 07:35:41;;;;;;;0.70;0.10;;;21.40;35.60;;;;;;5027376;28;20037;-45
2021/05/06 07:38:08;;;;;;;1.88;0.10;;;21.40;35.70;;;;;;5027068;28;20551;-45
2021/05/06 07:40:35;;;;;;;2.08;0.20;;;21.40;35.70;;;;;;5033620;28;20028;-45
2021/05/06 07:43:02;;;;;;;2.70;0.38;;;21.40;35.80;;;;;;5033353;28;20033;-44
2021/05/06 07:45:30;;;;;;;0.32;0.13;;;21.40;35.90;;;;;;5036281;28;20442;-46
2021/05/06 07:47:56;;;;;;;0.95;0.10;;;21.50;36.20;;;;;;5052298;22;20041;-49
2021/05/06 07:50:23;;;;;;;3.95;0.22;;;21.60;35.80;;;;;;5045489;28;20017;-53
2021/05/06 07:52:53;;;;;;;1.35;0.10;;;21.60;35.90;;;;;;5050717;28;20064;-50
2021/05/06 07:55:19;;;;;;;1.20;0.28;;;21.60;36.10;;;;;;5047587;28;20095;-50
2021/05/06 07:57:45;;;;;;;1.35;0.20;;;21.60;36.00;;;;;;5051428;28;20036;-49
2021/05/06 08:00:15;;;;;;;0.88;0.10;;;21.60;36.00;;;;;;5053113;28;20032;-55
2021/05/06 08:02:42;;;;;;;2.83;0.20;;;21.60;36.10;;;;;;5055060;28;20143;-49
2021/05/06 08:05:09;;;;;;;1.95;0.45;;;21.60;36.20;;;;;;5052488;28;20049;-47
2021/05/06 08:07:35;;;;;;;1.00;0.10;;;21.60;36.30;;;;;;5049043;28;20686;-48
2021/05/06 08:10:02;;;;;;;0.47;0.20;;;21.60;36.30;;;;;;5057712;28;20596;-49
2021/05/06 08:12:28;;;;;;;2.13;0.50;;;21.60;36.20;;;;;;5047704;28;20033;-48
2021/05/06 08:14:54;;;;;;;1.10;0.17;;;21.50;36.30;;;;;;5058283;28;20412;-49
2021/05/06 08:17:21;;;;;;;1.90;0.20;;;21.60;36.40;;;;;;5049641;28;20029;-50
2021/05/06 08:19:47;;;;;;;1.08;0.30;;;21.60;36.40;;;;;;5055658;28;20032;-45
2021/05/06 08:22:14;;;;;;;0.30;0.10;;;21.60;36.40;;;;;;5050631;28;20519;-48
2021/05/06 08:24:40;;;;;;;0.80;0.20;;;21.60;36.40;;;;;;5046008;28;20554;-48
2021/05/06 08:27:06;;;;;;;1.02;0.43;;;21.60;36.60;;;;;;5048772;28;20159;-47
2021/05/06 08:29:32;;;;;;;1.38;0.22;;;21.70;36.50;;;;;;5060981;28;20498;-48
2021/05/06 08:31:58;;;;;;;0.95;0.40;;;21.60;36.60;;;;;;5054990;28;20055;-52
2021/05/06 08:34:25;;;;;;;1.02;0.13;;;21.60;36.80;;;;;;5040464;28;20049;-52
2021/05/06 08:36:51;;;;;;;0.73;0.32;;;21.70;36.90;;;;;;5047845;28;20128;-47
2021/05/06 08:39:17;;;;;;;0.98;0.50;;;21.70;36.90;;;;;;5056900;28;20017;-51
2021/05/06 08:41:44;;;;;;;2.28;0.30;;;21.70;36.80;;;;;;5052623;28;20055;-54
2021/05/06 08:44:12;;;;;;;5.68;0.75;;;21.70;36.70;;;;;;5050100;28;20020;-52
2021/05/06 08:46:50;;;;;;;1.23;0.40;;;21.70;36.80;;;;;;5045706;28;20163;-51
2021/05/06 08:49:16;;;;;;;0.70;0.30;;;21.70;36.70;;;;;;5048022;28;20041;-49
2021/05/06 08:51:43;;;;;;;1.10;0.45;;;21.80;36.80;;;;;;5055748;28;20095;-47
2021/05/06 08:54:09;;;;;;;1.40;0.50;;;21.90;36.80;;;;;;5053466;28;20064;-46
2021/05/06 08:56:35;;;;;;;0.60;0.20;;;21.90;36.80;;;;;;5042961;28;20406;-49
2021/05/06 08:59:01;;;;;;;1.45;0.30;;;21.90;36.90;;;;;;5046396;28;20029;-48
2021/05/06 09:01:27;;;;;;;1.30;0.22;;;22.00;37.00;;;;;;5052843;28;20386;-49
2021/05/06 09:03:52;;;;;;;1.17;0.40;;;22.00;36.80;;;;;;5053026;28;20068;-48
2021/05/06 09:06:20;;;;;;;0.52;0.20;;;22.10;36.80;;;;;;5054843;28;20029;-48
2021/05/06 09:09:04;;;;;;;2.42;0.20;;;22.30;36.80;;;;;;5058496;28;20033;-46
2021/05/06 09:11:32;;;;;;;1.65;0.50;;;22.50;36.50;;;;;;5050029;28;20029;-50
2021/05/06 09:14:06;;;;;;;2.88;0.60;;;22.60;36.40;;;;;;5046696;28;20020;-50
2021/05/06 09:16:36;;;;;;;1.52;0.47;;;22.70;36.50;;;;;;5049707;28;20036;-51
2021/05/06 09:19:05;;;;;;;1.00;0.30;;;22.70;36.40;;;;;;5045593;28;20047;-46
2021/05/06 09:21:33;;;;;;;1.30;0.40;;;22.80;36.40;;;;;;5043167;28;20045;-46
2021/05/06 09:24:27;;;;;;;1.70;0.50;;;22.90;36.40;;;;;;5041259;28;20021;-46
2021/05/06 09:27:01;;;;;;;2.33;0.40;;;23.00;36.20;;;;;;5045097;28;20039;-54
2021/05/06 09:29:37;;;;;;;1.80;0.50;;;22.90;36.70;;;;;;5048501;28;20024;-50
2021/05/06 09:32:09;;;;;;;1.05;0.70;;;23.00;36.60;;;;;;5055119;28;20681;-49
2021/05/06 09:34:37;;;;;;;0.90;0.45;;;23.00;36.60;;;;;;5052212;28;20041;-45
2021/05/06 09:37:03;;;;;;;4.40;0.55;;;23.00;36.70;;;;;;5049407;28;20055;-47
2021/05/06 09:39:29;;;;;;;1.02;0.40;;;23.00;36.70;;;;;;5043328;28;20017;-48
2021/05/06 09:42:34;;;;;;;0.88;0.50;;;23.00;36.60;;;;;;5052258;28;20452;-47
2021/05/06 09:45:00;;;;;;;4.35;0.43;;;23.00;36.70;;;;;;5045376;28;20021;-46
2021/05/06 09:47:26;;;;;;;1.35;0.50;;;23.00;36.60;;;;;;5054318;28;20548;-48
2021/05/06 09:49:52;;;;;;;1.40;0.30;;;23.00;36.60;;;;;;5045767;28;20033;-48
2021/05/06 09:52:17;;;;;;;1.27;0.32;;;23.00;36.80;;;;;;5048169;28;20070;-50
2021/05/06 09:54:51;;;;;;;1.00;0.52;;;23.00;36.90;;;;;;5042182;28;20021;-49
2021/05/06 09:57:29;;;;;;;0.88;0.38;;;23.00;37.00;;;;;;5045419;28;20055;-50
2021/05/06 10:00:15;;;;;;;2.45;0.40;;;23.00;36.80;;;;;;5043719;28;20017;-47
2021/05/06 10:02:42;;;;;;;2.78;0.38;;;23.10;36.90;;;;;;5041093;28;20060;-46
2021/05/06 10:05:10;;;;;;;1.48;0.47;;;23.00;36.60;;;;;;5042831;28;20031;-47
2021/05/06 10:07:36;;;;;;;0.73;0.50;;;23.00;36.60;;;;;;5047903;28;20178;-50
2021/05/06 10:10:09;;;;;;;0.85;0.30;;;23.00;36.90;;;;;;5052036;28;20031;-49
2021/05/06 10:12:37;;;;;;;1.02;0.65;;;23.00;37.00;;;;;;5043024;28;20086;-48
2021/05/06 10:15:09;;;;;;;1.85;0.40;;;23.00;37.20;;;;;;5059641;28;20482;-50
2021/05/06 10:17:36;;;;;;;2.47;0.45;;;23.00;37.20;;;;;;5049269;28;20155;-50
2021/05/06 10:20:04;;;;;;;1.10;0.50;;;23.00;37.20;;;;;;5050607;28;20070;-49
2021/05/06 10:22:30;;;;;;;1.55;0.38;;;23.00;37.10;;;;;;5047938;28;20393;-54
2021/05/06 10:25:00;;;;;;;0.70;0.20;;;23.00;37.10;;;;;;5042878;28;20033;-54
2021/05/06 10:27:27;;;;;;;0.60;0.30;;;23.00;37.10;;;;;;5043463;28;20024;-49
2021/05/06 10:29:57;;;;;;;0.82;0.40;;;23.00;37.30;;;;;;5047902;28;20151;-48
2021/05/06 10:32:28;;;;;;;0.82;0.30;;;23.00;37.20;;;;;;5048556;28;20421;-51
2021/05/06 10:34:55;;;;;;;1.10;0.30;;;23.10;37.70;;;;;;5054174;28;20028;-51
2021/05/06 10:37:29;;;;;;;0.68;0.30;;;23.00;37.50;;;;;;5049605;28;20037;-48
2021/05/06 10:39:55;;;;;;;1.35;0.30;;;23.00;37.60;;;;;;5041390;28;20115;-44
2021/05/06 10:42:27;;;;;;;1.48;0.50;;;23.10;38.10;;;;;;5045569;28;20033;-50
2021/05/06 10:44:55;;;;;;;1.10;0.38;;;23.10;37.80;;;;;;5052391;28;20040;-51
2021/05/06 10:47:46;;;;;;;0.50;0.30;;;23.00;37.70;;;;;;5057352;28;20040;-49
2021/05/06 10:50:24;;;;;;;1.05;0.30;;;23.00;37.50;;;;;;5048542;28;20582;-50
2021/05/06 10:52:53;;;;;;;1.05;0.30;;;23.00;37.50;;;;;;5055479;28;20124;-51
2021/05/06 10:55:49;;;;;;;4.50;0.57;;;23.00;37.40;;;;;;5040192;28;20102;-48
2021/05/06 10:58:26;;;;;;;2.13;0.40;;;23.00;37.50;;;;;;5046380;28;20021;-49
2021/05/06 11:01:15;;;;;;;2.53;0.40;;;23.00;37.50;;;;;;5052869;28;20090;-48
2021/05/06 11:03:42;;;;;;;0.88;0.47;;;23.10;37.70;;;;;;5062438;28;20063;-50
2021/05/06 11:06:29;;;;;;;1.80;0.40;;;23.00;37.70;;;;;;5048983;28;20025;-46
2021/05/06 11:08:55;;;;;;;1.23;0.35;;;23.00;37.60;;;;;;5048465;28;20432;-53
2021/05/06 11:11:21;;;;;;;3.75;0.35;;;23.00;37.80;;;;;;5038722;28;20017;-50
2021/05/06 11:14:10;;;;;;;0.88;0.32;;;23.00;37.90;;;;;;5064197;28;20056;-46
2021/05/06 11:16:37;;;;;;;1.17;0.30;;;23.00;37.80;;;;;;5047824;28;20029;-49
2021/05/06 11:19:03;;;;;;;1.83;0.40;;;23.00;37.90;;;;;;5053899;28;20026;-50
2021/05/06 11:21:35;;;;;;;2.42;0.43;;;23.00;37.90;;;;;;5049344;28;20124;-45
2021/05/06 11:24:17;;;;;;;0.82;0.22;;;23.00;38.00;;;;;;5047070;28;20055;-45
2021/05/06 11:27:08;;;;;;;1.80;0.60;;;23.00;38.00;;;;;;5043855;28;20087;-51
2021/05/06 11:29:38;;;;;;;1.55;0.40;;;23.00;38.00;;;;;;5052392;28;20475;-46
2021/05/06 11:32:05;;;;;;;4.60;0.30;;;23.00;38.60;;;;;;5048766;28;20049;-48
2021/05/06 11:34:39;;;;;;;1.90;0.50;;;23.10;38.20;;;;;;5048923;28;20101;-48
2021/05/06 11:37:16;;;;;;;2.53;0.40;;;23.10;38.20;;;;;;5055159;28;20017;-48
2021/05/06 11:39:50;;;;;;;1.35;0.52;;;23.10;38.10;;;;;;5050238;28;20025;-49
2021/05/06 11:42:17;;;;;;;2.00;0.43;;;23.20;38.10;;;;;;5051499;28;20793;-49
2021/05/06 11:45:06;;;;;;;3.58;0.70;;;23.20;38.20;;;;;;5059496;28;20033;-52
2021/05/06 11:47:32;;;;;;;1.58;0.57;;;23.10;38.00;;;;;;5052229;28;20083;-49
2021/05/06 11:49:58;;;;;;;1.55;0.60;;;23.10;38.00;;;;;;5049645;28;20037;-51
2021/05/06 11:52:33;;;;;;;1.00;0.40;;;23.10;38.10;;;;;;5057216;28;20060;-49
2021/05/06 11:54:59;;;;;;;1.63;0.85;;;23.10;38.10;;;;;;5049801;28;20159;-47
2021/05/06 11:57:26;;;;;;;3.20;0.98;;;23.10;38.10;;;;;;5049121;28;20104;-46
2021/05/06 11:59:52;;;;;;;1.77;0.38;;;23.10;38.20;;;;;;5051344;28;20498;-50
2021/05/06 12:02:23;;;;;;;2.47;0.85;;;23.10;38.10;;;;;;5045188;28;20088;-49
2021/05/06 12:04:55;;;;;;;1.48;0.50;;;23.10;38.20;;;;;;5052114;28;20024;-45
2021/05/06 12:07:22;;;;;;;1.58;0.75;;;23.10;38.10;;;;;;5048323;28;20061;-49
2021/05/06 12:09:49;;;;;;;0.98;0.60;;;23.10;38.20;;;;;;5048717;28;20083;-46
2021/05/06 12:12:26;;;;;;;1.15;0.60;;;23.10;38.20;;;;;;5054207;28;20031;-48
2021/05/06 12:14:58;;;;;;;1.83;0.82;;;23.10;38.30;;;;;;5052788;28;20029;-48
2021/05/06 12:17:24;;;;;;;2.42;0.98;;;23.10;38.10;;;;;;5050555;28;20021;-49
2021/05/06 12:19:50;;;;;;;3.13;0.70;;;23.00;38.10;;;;;;5047826;28;20023;-46
2021/05/06 12:22:17;;;;;;;1.02;0.45;;;23.00;38.20;;;;;;5052144;28;20059;-51
2021/05/06 12:24:45;;;;;;;1.58;0.50;;;23.00;38.30;;;;;;5045260;28;20024;-45
2021/05/06 12:27:22;;;;;;;1.17;0.60;;;23.00;38.30;;;;;;5042437;28;20086;-46
2021/05/06 12:29:51;;;;;;;1.85;0.60;;;23.00;38.20;;;;;;5064020;28;20087;-50
2021/05/06 12:32:22;;;;;;;1.55;0.52;;;23.10;38.70;;;;;;5059684;28;20056;-48
2021/05/06 12:34:48;;;;;;;3.38;0.57;;;23.10;38.20;;;;;;5052800;28;20029;-50
2021/05/06 12:37:15;;;;;;;0.98;0.50;;;23.10;38.00;;;;;;5051320;28;20085;-47
2021/05/06 12:39:43;;;;;;;1.80;0.60;;;23.10;38.20;;;;;;5054245;28;20064;-48
2021/05/06 12:42:09;;;;;;;0.77;0.22;;;23.10;38.10;;;;;;5063324;28;20032;-50
2021/05/06 12:44:42;;;;;;;4.10;0.43;;;23.20;38.00;;;;;;5060955;28;20128;-52
2021/05/06 12:47:29;;;;;;;2.25;0.43;;;23.20;38.00;;;;;;5057460;28;20085;-49
2021/05/06 12:50:18;;;;;;;1.67;0.47;;;23.20;38.10;;;;;;5070165;28;20696;-45
2021/05/06 12:52:46;;;;;;;1.90;0.50;;;23.20;38.10;;;;;;5060313;28;20047;-48
2021/05/06 12:55:24;;;;;;;1.27;0.73;;;23.20;38.10;;;;;;5052566;28;20013;-46
2021/05/06 12:58:27;;;;;;;1.45;0.63;;;23.20;38.20;;;;;;5056002;28;20031;-49
2021/05/06 13:00:53;;;;;;;1.70;0.45;;;23.10;38.30;;;;;;5026932;28;20040;-43
2021/05/06 13:03:30;;;;;;;1.75;0.40;;;23.10;38.30;;;;;;5050464;28;20028;-52
2021/05/06 13:06:03;;;;;;;1.08;0.40;;;23.10;38.40;;;;;;5044064;28;20025;-48
2021/05/06 13:08:36;;;;;;;1.67;0.70;;;23.10;38.10;;;;;;5045194;28;20053;-48
2021/05/06 13:11:05;;;;;;;1.60;0.68;;;23.20;38.10;;;;;;5045504;28;20116;-49
2021/05/06 13:13:40;;;;;;;1.83;0.40;;;23.20;38.10;;;;;;5043038;28;20021;-53
2021/05/06 13:16:07;;;;;;;7.43;0.40;;;23.20;38.10;;;;;;5047912;28;20055;-47
2021/05/06 13:18:35;;;;;;;1.20;0.32;;;23.20;38.10;;;;;;5056419;28;20108;-47
2021/05/06 13:21:01;;;;;;;2.30;0.43;;;23.20;38.20;;;;;;5044171;28;20458;-51
2021/05/06 13:23:33;;;;;;;1.38;0.60;;;23.20;38.30;;;;;;5054388;28;20032;-48
2021/05/06 13:26:04;;;;;;;0.80;0.40;;;23.20;38.40;;;;;;5033583;28;20083;-50
2021/05/06 13:28:33;;;;;;;4.95;0.50;;;23.30;38.30;;;;;;5040786;28;20036;-48
2021/05/06 13:31:18;;;;;;;1.23;0.40;;;23.30;38.40;;;;;;5043376;28;20031;-51
2021/05/06 13:33:46;;;;;;;1.10;0.57;;;23.20;38.40;;;;;;5053386;28;20028;-49
2021/05/06 13:36:15;;;;;;;1.15;0.30;;;23.20;38.40;;;;;;5050882;28;20020;-49
2021/05/06 13:39:05;;;;;;;0.98;0.30;;;23.20;38.50;;;;;;5052192;28;20128;-49
2021/05/06 13:41:34;;;;;;;1.65;0.30;;;23.30;38.60;;;;;;5047658;28;20025;-48
2021/05/06 13:44:03;;;;;;;1.65;0.40;;;23.20;38.60;;;;;;5047994;28;20107;-46
2021/05/06 13:46:30;;;;;;;0.95;0.40;;;23.20;38.60;;;;;;5052331;28;20034;-51
2021/05/06 13:49:00;;;;;;;1.23;0.60;;;23.30;38.90;;;;;;5080986;23;20052;-53
2021/05/06 13:51:28;;;;;;;1.13;0.50;;;23.30;38.50;;;;;;5027495;28;20116;-42
2021/05/06 13:53:55;;;;;;;2.40;0.50;;;23.20;38.50;;;;;;5026598;28;20025;-46
2021/05/06 13:56:22;;;;;;;1.92;0.50;;;23.30;38.60;;;;;;5031876;28;20097;-48
2021/05/06 13:58:48;;;;;;;0.90;0.32;;;23.20;38.50;;;;;;5028641;28;20029;-49
2021/05/06 14:01:15;;;;;;;0.85;0.47;;;23.30;38.50;;;;;;5026193;28;20414;-48
2021/05/06 14:03:41;;;;;;;0.60;0.20;;;23.20;38.50;;;;;;5019794;28;20037;-48
2021/05/06 14:06:07;;;;;;;1.85;0.40;;;23.30;38.50;;;;;;5027479;28;20021;-47
2021/05/06 14:08:34;;;;;;;0.70;0.20;;;23.20;38.60;;;;;;5023820;28;20059;-49
2021/05/06 14:11:00;;;;;;;2.65;0.40;;;23.20;38.50;;;;;;5027721;28;20032;-48
2021/05/06 14:13:27;;;;;;;0.88;0.30;;;23.20;38.50;;;;;;5027056;28;20036;-48
2021/05/06 14:15:54;;;;;;;2.38;0.30;;;23.20;38.40;;;;;;5022197;28;20045;-48
2021/05/06 14:18:20;;;;;;;2.58;0.47;;;23.20;38.50;;;;;;5023741;28;20056;-50
2021/05/06 14:20:47;;;;;;;0.90;0.30;;;23.20;38.30;;;;;;5024356;28;20021;-48
2021/05/06 14:23:17;;;;;;;1.95;0.43;;;23.20;38.40;;;;;;5023838;28;20032;-49
2021/05/06 14:25:43;;;;;;;1.95;0.28;;;23.20;38.30;;;;;;5022621;28;20021;-46
2021/05/06 14:28:09;;;;;;;1.63;0.40;;;23.20;38.40;;;;;;5028777;28;20096;-48
2021/05/06 14:30:35;;;;;;;1.33;0.50;;;23.20;38.20;;;;;;5025415;28;22490;-45
2021/05/06 14:33:01;;;;;;;0.68;0.20;;;23.20;38.20;;;;;;5026466;28;20116;-50
2021/05/06 14:35:27;;;;;;;0.75;0.20;;;23.20;38.30;;;;;;5029954;28;20382;-50
2021/05/06 14:37:54;;;;;;;2.15;0.30;;;23.20;38.30;;;;;;5029123;28;20033;-46
2021/05/06 14:40:20;;;;;;;0.68;0.30;;;23.30;38.40;;;;;;5030000;28;20687;-47
2021/05/06 14:42:47;;;;;;;1.25;0.30;;;23.20;38.30;;;;;;5025046;28;20055;-46
2021/05/06 14:45:13;;;;;;;0.70;0.30;;;23.30;38.50;;;;;;5023706;28;20033;-47
2021/05/06 14:47:40;;;;;;;1.08;0.50;;;23.20;38.40;;;;;;5024713;28;20446;-47
2021/05/06 14:50:14;;;;;;;1.50;0.30;;;23.20;38.40;;;;;;5024793;28;20096;-43
2021/05/06 14:52:40;;;;;;;2.05;0.60;;;23.30;38.40;;;;;;5022740;28;20135;-42
2021/05/06 14:55:09;;;;;;;2.58;0.40;;;23.30;38.50;;;;;;5024751;28;20026;-41
2021/05/06 14:57:35;;;;;;;1.90;0.38;;;23.30;38.50;;;;;;5020661;28;20127;-52
2021/05/06 15:00:04;;;;;;;1.98;0.40;;;23.30;38.60;;;;;;5025154;28;20025;-46
2021/05/06 15:02:30;;;;;;;0.90;0.30;;;23.20;38.60;;;;;;5025251;28;20375;-50
2021/05/06 15:04:56;;;;;;;1.30;0.40;;;23.30;38.60;;;;;;5026173;28;20033;-45
2021/05/06 15:07:22;;;;;;;0.70;0.20;;;23.20;38.50;;;;;;5026528;28;20087;-45
2021/05/06 15:09:48;;;;;;;0.55;0.20;;;23.30;38.60;;;;;;5027922;28;20482;-48
2021/05/06 15:12:14;;;;;;;0.68;0.20;;;23.30;38.60;;;;;;5026989;28;20088;-48
2021/05/06 15:14:40;;;;;;;0.88;0.20;;;23.30;38.60;;;;;;5023067;28;20411;-48
2021/05/06 15:17:06;;;;;;;3.38;0.43;;;23.20;38.50;;;;;;5026668;28;20029;-49
2021/05/06 15:19:32;;;;;;;1.27;0.30;;;23.20;38.60;;;;;;5021297;28;20033;-46
2021/05/06 15:21:58;;;;;;;0.65;0.20;;;23.20;38.50;;;;;;5029532;28;20025;-49
2021/05/06 15:24:24;;;;;;;1.25;0.40;;;23.20;38.80;;;;;;5024172;28;20069;-49
2021/05/06 15:26:49;;;;;;;0.90;0.20;;;23.30;38.80;;;;;;5030609;28;20022;-45
2021/05/06 15:29:15;;;;;;;0.90;0.30;;;23.30;38.60;;;;;;5032972;28;20034;-48
2021/05/06 15:31:41;;;;;;;1.95;0.30;;;23.30;38.60;;;;;;5039631;28;20064;-51
2021/05/06 15:34:09;;;;;;;0.70;0.20;;;23.30;38.40;;;;;;5033472;28;20100;-47
2021/05/06 15:36:35;;;;;;;1.77;0.20;;;23.30;38.40;;;;;;5041366;28;20041;-49
2021/05/06 15:39:03;;;;;;;1.40;0.40;;;23.30;38.60;;;;;;5019263;28;20033;-47
2021/05/06 15:41:29;;;;;;;2.00;0.30;;;23.30;38.60;;;;;;5023848;28;20064;-45
2021/05/06 15:43:56;;;;;;;0.43;0.17;;;23.30;38.60;;;;;;5028382;28;20117;-48
2021/05/06 15:46:22;;;;;;;0.93;0.10;;;23.30;38.60;;;;;;5023513;28;20037;-48
2021/05/06 15:48:47;;;;;;;3.13;0.20;;;23.20;38.60;;;;;;5023433;28;20030;-46
2021/05/06 15:51:14;;;;;;;2.42;0.40;;;23.30;38.70;;;;;;5029869;28;20041;-48
2021/05/06 15:53:42;;;;;;;0.80;0.10;;;23.30;38.60;;;;;;5026668;28;20025;-47
2021/05/06 15:56:09;;;;;;;0.75;0.28;;;23.30;38.60;;;;;;5028469;28;20025;-46
2021/05/06 15:58:36;;;;;;;0.70;0.20;;;23.30;38.60;;;;;;5029855;28;20076;-52
2021/05/06 16:01:04;;;;;;;0.93;0.28;;;23.30;38.70;;;;;;5026185;28;20029;-51
2021/05/06 16:03:34;;;;;;;0.60;0.25;;;23.30;38.60;;;;;;5031791;28;20399;-50
2021/05/06 16:06:00;;;;;;;0.80;0.30;;;23.30;38.70;;;;;;5022435;28;20021;-52
2021/05/06 16:08:26;;;;;;;0.60;0.22;;;23.30;38.70;;;;;;5028928;28;20506;-49
2021/05/06 16:10:53;;;;;;;1.60;0.43;;;23.30;38.60;;;;;;5031008;28;20028;-47
2021/05/06 16:13:20;;;;;;;6.85;0.35;;;23.30;38.60;;;;;;5025153;28;20025;-49
2021/05/06 16:15:50;;;;;;;0.60;0.32;;;23.30;38.70;;;;;;5017917;28;20093;-50
2021/05/06 16:18:18;;;;;;;0.68;0.30;;;23.20;38.70;;;;;;5022264;28;20044;-48
2021/05/06 16:20:45;;;;;;;0.60;0.20;;;23.20;38.70;;;;;;5021206;28;20438;-49
2021/05/06 16:23:11;;;;;;;0.65;0.30;;;23.20;38.70;;;;;;5028528;28;20032;-48
2021/05/06 16:25:39;;;;;;;0.40;0.13;;;23.30;38.80;;;;;;5031854;28;20065;-47
2021/05/06 16:28:06;;;;;;;0.77;0.28;;;23.30;38.70;;;;;;5024635;28;20022;-52
2021/05/06 16:30:32;;;;;;;5.78;0.75;;;23.20;38.70;;;;;;5028270;28;20441;-46
2021/05/06 16:33:00;;;;;;;1.60;0.20;;;23.20;38.70;;;;;;5029748;28;20044;-41
2021/05/06 16:35:30;;;;;;;0.65;0.20;;;23.20;38.80;;;;;;5028425;28;20088;-46
2021/05/06 16:43:10;;;;;;;0.70;0.30;;;23.20;38.60;;;;;;5022865;28;20037;-46